createdAt,value
2022-12-24T04:00:26.027Z,2.35
2022-12-24T04:02:55.133Z,1.90
2022-12-24T04:05:23.445Z,2.15
2022-12-24T04:07:51.319Z,1.98
2022-12-24T04:10:19.411Z,1.95
2022-12-24T04:12:47.242Z,2.60
2022-12-24T04:15:15.074Z,2.30
2022-12-24T04:17:44.358Z,2.25
2022-12-24T04:20:13.411Z,2.58
2022-12-24T04:22:42.089Z,2.13
2022-12-24T04:25:11.159Z,2.30
2022-12-24T04:27:38.963Z,1.95
2022-12-24T04:30:08.472Z,1.90
2022-12-24T04:32:36.326Z,2.47
2022-12-24T04:35:05.970Z,2.30
2022-12-24T04:37:35.202Z,1.83
2022-12-24T04:40:03.178Z,2.20
2022-12-24T04:42:31.104Z,2.10
2022-12-24T04:44:58.974Z,2.22
2022-12-24T04:47:26.966Z,2.00
2022-12-24T04:49:54.856Z,2.10
2022-12-24T04:52:24.091Z,1.75
2022-12-24T04:54:51.914Z,1.80
2022-12-24T04:57:19.791Z,2.00
2022-12-24T04:59:47.621Z,2.03
2022-12-24T05:02:15.628Z,1.83
2022-12-24T05:04:43.688Z,1.88
2022-12-24T05:07:11.607Z,2.22
2022-12-24T05:09:41.067Z,1.75
2022-12-24T05:12:09.154Z,2.33
2022-12-24T05:14:37.203Z,2.00
2022-12-24T05:17:05.223Z,1.90
2022-12-24T05:19:33.348Z,2.00
2022-12-24T05:22:18.860Z,1.60
2022-12-24T05:25:05.627Z,2.20
2022-12-24T05:27:33.584Z,2.25
2022-12-24T05:30:01.404Z,1.90
2022-12-24T05:32:29.648Z,2.42
2022-12-24T05:34:57.511Z,1.90
2022-12-24T05:37:25.437Z,2.15
2022-12-24T05:39:54.627Z,2.33
2022-12-24T05:42:22.486Z,2.30
2022-12-24T05:44:50.293Z,2.45
2022-12-24T05:47:18.115Z,2.08
2022-12-24T05:49:45.935Z,2.50
2022-12-24T05:52:13.711Z,2.10
2022-12-24T05:54:41.545Z,2.40
2022-12-24T05:57:10.705Z,2.10
2022-12-24T05:59:38.611Z,2.10
2022-12-24T06:02:06.476Z,2.08
2022-12-24T06:04:34.399Z,2.35
2022-12-24T06:07:02.264Z,2.15
2022-12-24T06:09:30.094Z,2.10
2022-12-24T06:11:57.928Z,2.33
2022-12-24T06:14:27.128Z,2.47
2022-12-24T06:16:54.941Z,2.05
2022-12-24T06:19:22.852Z,2.63
2022-12-24T06:21:50.934Z,2.58
2022-12-24T06:24:18.922Z,2.38
2022-12-24T06:26:46.848Z,2.38
2022-12-24T06:29:14.790Z,3.20
2022-12-24T06:31:44.089Z,2.80
2022-12-24T06:34:11.959Z,3.35
2022-12-24T06:36:39.875Z,2.92
2022-12-24T06:39:07.748Z,2.47
2022-12-24T06:41:35.604Z,2.67
2022-12-24T06:44:03.528Z,2.58
2022-12-24T06:46:31.509Z,2.55
2022-12-24T06:49:00.705Z,2.92
2022-12-24T06:51:28.640Z,3.15
2022-12-24T06:53:56.515Z,4.00
2022-12-24T06:56:24.495Z,3.20
2022-12-24T06:58:52.396Z,2.65
2022-12-24T07:01:21.645Z,2.92
2022-12-24T07:03:49.779Z,2.70
2022-12-24T07:06:21.615Z,2.80
2022-12-24T07:08:49.518Z,2.47
2022-12-24T07:11:17.951Z,3.20
2022-12-24T07:13:45.976Z,2.72
2022-12-24T07:16:14.226Z,2.85
2022-12-24T07:18:42.186Z,3.05
2022-12-24T07:21:10.825Z,2.90
2022-12-24T07:23:40.000Z,3.60
2022-12-24T07:26:08.662Z,13.90
2022-12-24T07:28:36.510Z,18.88
2022-12-24T07:31:04.737Z,10.23
2022-12-24T07:33:32.791Z,5.47
2022-12-24T07:36:02.428Z,5.43
2022-12-24T07:38:31.087Z,4.22
2022-12-24T07:41:00.771Z,3.13
2022-12-24T07:43:29.422Z,3.50
2022-12-24T07:45:58.289Z,3.50
2022-12-24T07:48:27.593Z,3.28
2022-12-24T07:50:55.767Z,4.35
2022-12-24T07:53:24.369Z,2.70
2022-12-24T07:55:52.226Z,2.80
2022-12-24T07:58:21.845Z,2.67
2022-12-24T08:00:49.705Z,2.40
2022-12-24T08:03:19.394Z,2.40
2022-12-24T08:05:47.775Z,2.72
2022-12-24T08:08:15.817Z,2.65
2022-12-24T08:10:45.177Z,2.80
2022-12-24T08:13:13.421Z,3.47
2022-12-24T08:15:42.826Z,3.00
2022-12-24T08:18:11.295Z,3.00
2022-12-24T08:20:40.153Z,3.25
2022-12-24T08:23:08.281Z,3.90
2022-12-24T08:25:36.788Z,3.50
2022-12-24T08:28:04.775Z,4.15
2022-12-24T08:30:32.661Z,4.05
2022-12-24T08:33:01.916Z,5.90
2022-12-24T08:35:29.821Z,3.70
2022-12-24T08:37:57.952Z,3.13
2022-12-24T08:40:26.008Z,3.60
2022-12-24T08:42:53.917Z,3.50
2022-12-24T08:45:21.814Z,3.00
2022-12-24T08:47:49.712Z,2.92
2022-12-24T08:50:19.122Z,2.45
2022-12-24T08:52:46.932Z,2.85
2022-12-24T08:55:14.775Z,2.90
2022-12-24T08:57:42.623Z,2.40
2022-12-24T09:00:13.284Z,2.50
2022-12-24T09:02:41.217Z,2.88
2022-12-24T09:05:09.830Z,3.60
2022-12-24T09:07:39.038Z,3.83
2022-12-24T09:10:08.404Z,4.75
2022-12-24T09:12:36.283Z,4.10
2022-12-24T09:15:05.864Z,3.58
2022-12-24T09:17:34.752Z,3.42
2022-12-24T09:20:02.611Z,3.40
2022-12-24T09:22:30.482Z,3.58
2022-12-24T09:24:59.624Z,3.55
2022-12-24T09:27:27.455Z,3.50
2022-12-24T09:29:55.273Z,4.20
2022-12-24T09:32:23.113Z,3.80
2022-12-24T09:34:51.071Z,3.47
2022-12-24T09:37:19.156Z,3.72
2022-12-24T09:39:47.125Z,4.07
2022-12-24T09:42:28.878Z,3.92
2022-12-24T09:45:03.625Z,3.60
2022-12-24T09:47:38.357Z,3.42
2022-12-24T09:50:19.467Z,3.55
2022-12-24T09:52:48.594Z,4.97
2022-12-24T09:55:22.849Z,4.25
2022-12-24T09:57:55.076Z,4.88
2022-12-24T10:00:26.656Z,5.20
2022-12-24T10:02:54.620Z,5.50
2022-12-24T10:05:32.028Z,3.38
2022-12-24T10:08:08.715Z,3.47
2022-12-24T10:10:41.707Z,3.70
2022-12-24T10:13:17.496Z,3.80
2022-12-24T10:15:53.211Z,5.55
2022-12-24T10:18:30.113Z,6.07
2022-12-24T10:21:06.027Z,3.92
2022-12-24T10:23:39.309Z,3.92
2022-12-24T10:26:14.080Z,3.90
2022-12-24T10:28:49.729Z,3.38
2022-12-24T10:31:18.978Z,4.13
2022-12-24T10:33:51.519Z,3.75
2022-12-24T10:36:22.857Z,3.63
2022-12-24T10:38:50.663Z,4.40
2022-12-24T10:41:18.679Z,4.38
2022-12-24T10:43:49.439Z,3.90
2022-12-24T10:46:21.913Z,3.72
2022-12-24T10:48:55.688Z,3.53
2022-12-24T10:51:30.519Z,3.42
2022-12-24T10:54:02.867Z,3.47
2022-12-24T10:56:30.718Z,3.20
2022-12-24T10:58:59.944Z,3.22
2022-12-24T11:01:46.536Z,3.25
2022-12-24T11:04:18.642Z,3.05
2022-12-24T11:06:58.492Z,3.08
2022-12-24T11:09:29.149Z,2.72
2022-12-24T11:12:00.454Z,3.22
2022-12-24T11:14:38.303Z,2.88
2022-12-24T11:17:06.873Z,3.38
2022-12-24T11:19:38.736Z,2.83
2022-12-24T11:22:08.288Z,3.42
2022-12-24T11:24:38.869Z,8.30
2022-12-24T11:27:39.499Z,8.18
2022-12-24T11:30:25.247Z,4.57
2022-12-24T11:33:17.843Z,3.92
2022-12-24T11:35:49.276Z,4.18
2022-12-24T11:38:22.232Z,3.75
2022-12-24T11:40:51.797Z,3.42
2022-12-24T11:43:21.172Z,4.35
2022-12-24T11:45:52.878Z,4.32
2022-12-24T11:48:30.008Z,4.30
2022-12-24T11:50:59.509Z,3.28
2022-12-24T11:53:34.713Z,3.90
2022-12-24T11:56:07.735Z,3.08
2022-12-24T11:58:41.476Z,3.10
2022-12-24T12:01:19.027Z,3.28
2022-12-24T12:03:50.047Z,2.97
2022-12-24T12:06:37.583Z,2.60
2022-12-24T12:09:11.827Z,2.72
2022-12-24T12:11:42.593Z,2.30
2022-12-24T12:14:19.255Z,4.22
2022-12-24T12:17:04.466Z,2.97
2022-12-24T12:19:39.418Z,3.00
2022-12-24T12:22:12.352Z,3.40
2022-12-24T12:24:47.143Z,3.13
2022-12-24T12:27:22.387Z,2.70
2022-12-24T12:29:56.664Z,2.50
2022-12-24T12:32:29.776Z,2.63
2022-12-24T12:35:05.918Z,2.67
2022-12-24T12:37:39.199Z,2.63
2022-12-24T12:40:14.848Z,2.80
2022-12-24T12:42:51.693Z,3.00
2022-12-24T12:45:34.719Z,2.65
2022-12-24T12:48:36.368Z,2.50
2022-12-24T12:51:10.212Z,2.53
2022-12-24T12:53:48.221Z,2.78
2022-12-24T12:56:31.356Z,2.47
2022-12-24T12:59:04.460Z,2.75
2022-12-24T13:01:43.329Z,8.70
2022-12-24T13:04:35.861Z,5.22
2022-12-24T13:07:37.616Z,3.42
2022-12-24T13:10:27.132Z,3.90
2022-12-24T13:13:13.041Z,2.55
2022-12-24T13:15:58.643Z,2.67
2022-12-24T13:18:45.036Z,2.63
2022-12-24T13:21:21.986Z,2.83
2022-12-24T13:23:50.194Z,3.10
2022-12-24T13:26:19.373Z,3.50
2022-12-24T13:28:47.211Z,3.05
2022-12-24T13:31:31.561Z,3.20
2022-12-24T13:34:02.554Z,2.97
2022-12-24T13:37:04.779Z,2.70
2022-12-24T13:40:16.684Z,2.60
2022-12-24T13:42:50.099Z,2.53
2022-12-24T13:45:48.009Z,2.55
2022-12-24T13:48:30.060Z,2.45
2022-12-24T13:51:01.420Z,2.80
2022-12-24T13:53:32.960Z,2.90
2022-12-24T13:56:07.724Z,2.72
2022-12-24T13:58:37.263Z,2.95
2022-12-24T14:01:09.526Z,3.42
2022-12-24T14:03:43.342Z,2.90
2022-12-24T14:06:14.599Z,3.25
2022-12-24T14:08:46.125Z,3.05
2022-12-24T14:11:18.183Z,3.20
2022-12-24T14:13:54.946Z,3.08
2022-12-24T14:16:24.392Z,3.30
2022-12-24T14:19:00.282Z,3.60
2022-12-24T14:21:31.861Z,3.72
2022-12-24T14:24:02.600Z,3.50
2022-12-24T14:26:37.235Z,3.08
2022-12-24T14:29:14.790Z,3.17
2022-12-24T14:31:52.556Z,3.22
2022-12-24T14:34:20.713Z,2.80
2022-12-24T14:36:51.079Z,2.90
2022-12-24T14:39:26.157Z,3.33
2022-12-24T14:42:03.928Z,3.10
2022-12-24T14:44:41.212Z,3.53
2022-12-24T14:47:22.724Z,3.72
2022-12-24T14:50:25.576Z,3.83
2022-12-24T14:53:07.347Z,3.25
2022-12-24T14:55:42.075Z,4.05
2022-12-24T14:58:37.225Z,3.72
2022-12-24T15:01:21.022Z,4.28
2022-12-24T15:04:01.905Z,4.18
2022-12-24T15:06:32.742Z,6.45
2022-12-24T15:09:00.855Z,4.80
2022-12-24T15:11:29.035Z,3.97
2022-12-24T15:14:01.017Z,3.78
2022-12-24T15:16:33.424Z,3.75
2022-12-24T15:19:05.023Z,4.20
2022-12-24T15:21:34.708Z,4.05
2022-12-24T15:24:02.642Z,4.90
2022-12-24T15:26:36.061Z,5.38
2022-12-24T15:29:22.151Z,4.70
2022-12-24T15:31:54.321Z,4.00
2022-12-24T15:34:28.565Z,4.28
2022-12-24T15:37:04.289Z,4.45
2022-12-24T15:39:32.255Z,5.15
2022-12-24T15:42:15.179Z,4.68
2022-12-24T15:44:50.611Z,4.70
2022-12-24T15:47:22.181Z,4.93
2022-12-24T15:49:53.180Z,4.95
2022-12-24T15:52:24.910Z,5.15
2022-12-24T15:54:57.658Z,5.07
2022-12-24T15:57:30.897Z,5.38
2022-12-24T16:00:01.488Z,6.00
2022-12-24T16:02:35.760Z,5.57
2022-12-24T16:05:20.427Z,5.97
2022-12-24T16:08:10.780Z,5.57
2022-12-24T16:10:40.924Z,6.05
2022-12-24T16:13:19.218Z,7.03
2022-12-24T16:15:53.048Z,6.30
2022-12-24T16:18:26.133Z,5.85
2022-12-24T16:20:55.702Z,5.55
2022-12-24T16:23:26.200Z,8.90
2022-12-24T16:25:54.337Z,8.93
2022-12-24T16:28:23.243Z,8.40
2022-12-24T16:30:55.472Z,8.85
2022-12-24T16:33:23.794Z,8.60
2022-12-24T16:35:51.806Z,7.38
2022-12-24T16:38:19.655Z,8.48
2022-12-24T16:40:48.058Z,8.10
2022-12-24T16:43:33.648Z,7.80
2022-12-24T16:46:05.329Z,8.50
2022-12-24T16:48:36.276Z,9.07
2022-12-24T16:51:04.283Z,7.80
2022-12-24T16:53:32.120Z,8.25
2022-12-24T16:55:59.961Z,9.48
2022-12-24T16:58:28.552Z,10.55
2022-12-24T17:00:56.878Z,10.98
2022-12-24T17:03:26.162Z,9.90
2022-12-24T17:05:54.032Z,10.43
2022-12-24T17:08:21.836Z,10.07
2022-12-24T17:10:52.466Z,9.55
2022-12-24T17:13:20.293Z,10.68
2022-12-24T17:15:48.156Z,12.57
2022-12-24T17:18:16.639Z,12.48
2022-12-24T17:20:45.794Z,12.65
2022-12-24T17:23:13.591Z,9.60
2022-12-24T17:25:41.413Z,9.40
2022-12-24T17:28:09.231Z,10.52
2022-12-24T17:30:40.007Z,10.88
2022-12-24T17:33:14.140Z,13.30
2022-12-24T17:35:43.162Z,13.85
2022-12-24T17:38:12.352Z,14.55
2022-12-24T17:40:40.175Z,15.05
2022-12-24T17:43:08.103Z,13.55
2022-12-24T17:45:35.936Z,13.50
2022-12-24T17:48:03.901Z,14.05
2022-12-24T17:50:31.725Z,14.20
2022-12-24T17:52:59.550Z,15.02
2022-12-24T17:55:28.722Z,13.85
2022-12-24T17:57:56.546Z,13.68
2022-12-24T18:00:28.100Z,13.02
2022-12-24T18:03:00.692Z,13.52
2022-12-24T18:05:28.663Z,11.95
2022-12-24T18:07:56.584Z,10.38
2022-12-24T18:10:24.752Z,10.05
2022-12-24T18:12:53.908Z,10.05
2022-12-24T18:15:22.099Z,9.15
2022-12-24T18:17:52.284Z,8.13
2022-12-24T18:20:20.504Z,7.85
2022-12-24T18:22:48.636Z,7.10
2022-12-24T18:25:17.069Z,7.90
2022-12-24T18:27:44.879Z,7.93
2022-12-24T18:30:15.084Z,8.25
2022-12-24T18:32:42.985Z,7.45
2022-12-24T18:35:11.518Z,7.43
2022-12-24T18:37:39.397Z,8.00
2022-12-24T18:40:08.633Z,6.90
2022-12-24T18:42:36.741Z,7.15
2022-12-24T18:45:04.907Z,7.20
2022-12-24T18:47:34.069Z,6.97
2022-12-24T18:50:02.158Z,8.25
2022-12-24T18:52:32.323Z,13.82
2022-12-24T18:55:00.160Z,12.75
2022-12-24T18:57:27.979Z,10.82
2022-12-24T18:59:55.885Z,10.55
2022-12-24T19:02:23.935Z,10.55
2022-12-24T19:04:53.300Z,11.05
2022-12-24T19:07:21.138Z,9.68
2022-12-24T19:09:48.988Z,10.20
2022-12-24T19:12:16.896Z,9.02
2022-12-24T19:14:44.721Z,8.77
2022-12-24T19:17:12.554Z,24.13
2022-12-24T19:19:40.387Z,59.15
2022-12-24T19:22:09.563Z,53.67
2022-12-24T19:24:37.375Z,19.83
2022-12-24T19:27:05.193Z,10.32
2022-12-24T19:29:32.996Z,10.43
2022-12-24T19:32:00.904Z,9.20
2022-12-24T19:34:28.928Z,10.50
2022-12-24T19:36:56.740Z,13.88
2022-12-24T19:39:31.727Z,14.43
2022-12-24T19:42:00.261Z,13.13
2022-12-24T19:44:28.499Z,12.90
2022-12-24T19:46:56.338Z,12.27
2022-12-24T19:49:24.145Z,11.60
2022-12-24T19:51:51.985Z,11.52
2022-12-24T19:54:19.825Z,11.30
2022-12-24T19:56:49.022Z,11.38
2022-12-24T19:59:17.895Z,12.43
2022-12-24T20:01:47.107Z,12.75
2022-12-24T20:04:18.225Z,12.82
2022-12-24T20:06:46.027Z,11.13
2022-12-24T20:09:14.362Z,13.13
2022-12-24T20:11:42.191Z,12.02
2022-12-24T20:14:12.725Z,11.57
2022-12-24T20:16:40.883Z,11.60
2022-12-24T20:19:13.944Z,10.32
2022-12-24T20:21:41.957Z,11.20
2022-12-24T20:24:09.926Z,12.57
2022-12-24T20:26:37.840Z,13.68
2022-12-24T20:29:07.564Z,13.57
2022-12-24T20:31:38.655Z,12.57
2022-12-24T20:34:07.343Z,13.18
2022-12-24T20:36:37.120Z,13.68
2022-12-24T20:39:05.717Z,13.95
2022-12-24T20:41:34.132Z,12.88
2022-12-24T20:44:04.401Z,12.73
2022-12-24T20:46:33.450Z,12.25
2022-12-24T20:49:02.747Z,11.82
2022-12-24T20:51:30.577Z,14.77
2022-12-24T20:54:00.651Z,15.27
2022-12-24T20:56:29.181Z,12.98
2022-12-24T20:58:58.328Z,11.77
2022-12-24T21:01:28.401Z,13.90
2022-12-24T21:04:00.151Z,13.02
2022-12-24T21:06:29.475Z,11.82
2022-12-24T21:08:57.338Z,11.05
2022-12-24T21:11:43.585Z,10.73
2022-12-24T21:14:11.673Z,8.93
2022-12-24T21:16:40.682Z,8.50
2022-12-24T21:19:09.908Z,8.93
2022-12-24T21:21:39.121Z,11.68
2022-12-24T21:24:07.745Z,12.27
2022-12-24T21:26:36.268Z,11.00
2022-12-24T21:29:06.554Z,10.77
2022-12-24T21:31:34.903Z,10.63
2022-12-24T21:34:03.461Z,10.52
2022-12-24T21:36:31.624Z,10.18
2022-12-24T21:39:00.795Z,11.30
2022-12-24T21:41:28.993Z,11.13
2022-12-24T21:43:56.805Z,10.40
2022-12-24T21:46:27.103Z,10.15
2022-12-24T21:49:14.028Z,9.50
2022-12-24T21:51:43.991Z,9.18
2022-12-24T21:54:27.101Z,9.98
2022-12-24T21:57:14.848Z,9.70
2022-12-24T21:59:42.988Z,8.82
2022-12-24T22:02:12.724Z,9.85
2022-12-24T22:04:41.051Z,11.80
2022-12-24T22:07:35.567Z,11.07
2022-12-24T22:10:23.063Z,10.40
2022-12-24T22:12:50.963Z,9.52
2022-12-24T22:15:19.234Z,8.90
2022-12-24T22:17:47.304Z,10.48
2022-12-24T22:20:15.261Z,10.32
2022-12-24T22:22:43.086Z,10.77
2022-12-24T22:25:12.325Z,10.20
2022-12-24T22:27:40.164Z,11.45
2022-12-24T22:30:09.412Z,10.55
2022-12-24T22:32:37.423Z,11.38
2022-12-24T22:35:05.778Z,11.05
2022-12-24T22:37:33.747Z,11.25
2022-12-24T22:40:01.594Z,9.88
2022-12-24T22:42:32.695Z,9.70
2022-12-24T22:45:00.833Z,10.05
2022-12-24T22:47:29.804Z,9.80
2022-12-24T22:49:57.611Z,8.30
2022-12-24T22:52:25.562Z,7.55
2022-12-24T22:54:53.431Z,6.50
2022-12-24T22:57:21.266Z,6.40
2022-12-24T22:59:50.434Z,5.90
